YADG weather

Aldinga Airport
Aldinga, South Australia, Australia

Public forecast

Using degrees Celsius for public forecast. Weather courtesy of forecast.io.

Closest aviation weather report (METAR) to Aldinga Airport

Closest report is Adelaide International Airport, 20.8 nm (38.5 km) N. Retrieved 2020/01/29 07:30 UTC (12 minutes ago):

YPAD 290730Z 21008KT CAVOK 34/02 Q1010 NOSIG

Closest aviation forecast (TAF) to Aldinga Airport

Closest forecast is Adelaide International Airport, 20.8 nm (38.5 km) N. Retrieved 2020/01/29 06:00 UTC (2 hours ago):

TAF YPAD 290521Z 2906/3012 24012KT CAVOK FM291000 VRB05KT CAVOK FM292000 03012KT CAVOK FM300300 24012KT CAVOK FM300700 18008KT CAVOK FM301000 12008KT CAVOK